Latest Weather Observations for Jandakot

IDW60801

Issued at 10:32 am WST Wednesday 2 September 2015 (issued every 30 minutes, with the page automatically refreshed every 10 minutes)

About weather observations | Map of weather stations | Latest weather observations for WA | Other Formats
Station Details ID: 009172 Name: JANDAKOT AERO Lat: -32.10 Lon: 115.88 Height: 30.0 m
Data from the previous 72 hours. | See also: Recent months at Jandakot
Date/Time
WST
Temp
°C
App
Temp
°C
Dew
Point
Rel
Hum
%
Delta-T
°C
Wind Press
QNH
hPa
Press
MSL
hPa
Rain
since 9 am
mm
Dir
 
Spd
km/h
Gust
km/h
Spd
kts
Gust
kts
02/10:30am 12.9 8.7 4.0 54 4.0 SSE 15 20 8 11 1027.7 1027.7 0.0
02/10:00am 12.6 9.6 3.9 55 3.9 SE 9 17 5 9 1028.0 1028.0 0.0
02/09:30am 12.4 8.6 3.9 56 3.8 SE 13 19 7 10 1028.4 1028.4 0.0
02/09:00am 11.6 8.4 5.0 64 3.0 SE 11 13 6 7 1028.6 1028.6 0.0
02/08:30am 9.4 8.4 5.6 77 1.7 CALM 0 0 0 0 1028.7 1028.7 0.0
02/08:00am 6.5 4.1 4.4 86 0.9 ESE 6 7 3 4 1028.5 1028.5 0.0
02/07:30am 4.3 2.6 4.1 99 0.1 SSE 2 6 1 3 1028.3 1028.3 0.0
02/07:00am 1.2 -0.7 0.7 96 0.2 CALM 0 0 0 0 1028.0 1028.0 0.0
02/06:30am 1.0 -1.3 0.5 96 0.2 SSE 2 6 1 3 1027.8 1027.8 0.0
02/06:00am 1.0 -1.0 0.2 94 0.3 CALM 0 9 0 5 1027.5 1027.5 0.0
02/05:30am 1.4 -0.9 0.6 94 0.3 SE 2 6 1 3 1027.3 1027.3 0.0
02/05:00am 1.2 -1.9 0.4 94 0.3 SSE 6 7 3 4 1027.0 1027.0 0.0
02/04:30am 1.5 -1.5 0.7 94 0.3 ESE 6 7 3 4 1026.7 1026.7 0.0
02/04:00am 1.8 -0.1 0.7 92 0.4 CALM 0 0 0 0 1026.6 1026.6 0.0
02/03:30am 2.4 0.6 1.3 92 0.4 CALM 0 0 0 0 1026.5 1026.5 0.0
02/03:00am 2.6 0.1 1.3 91 0.5 ESE 4 7 2 4 1026.3 1026.3 0.0
02/02:30am 3.2 -0.2 1.6 89 0.6 ESE 9 11 5 6 1026.2 1026.2 0.0
02/02:00am 3.6 1.1 1.8 88 0.7 SSE 4 9 2 5 1026.5 1026.5 0.0
02/01:30am 4.6 2.6 2.3 85 0.9 SSE 2 7 1 4 1026.6 1026.6 0.0
02/01:00am 5.9 2.6 2.2 77 1.5 ESE 9 11 5 6 1026.5 1026.5 0.0
02/12:30am 7.1 3.3 1.9 69 2.1 ESE 11 15 6 8 1026.5 1026.5 0.0
02/12:00am 7.2 3.6 2.9 74 1.8 SE 11 15 6 8 1026.4 1026.4 0.0
 
Date/Time
WST
Temp
°C
App
Temp
°C
Dew
Point
Rel
Hum
%
Delta-T
°C
Wind Press
QNH
hPa
Press
MSL
hPa
Rain
since 9 am
mm
Dir
 
Spd
km/h
Gust
km/h
Spd
kts
Gust
kts
01/11:30pm 7.8 4.2 3.0 71 2.0 SE 11 19 6 10 1026.4 1026.4 0.0
01/11:00pm 6.3 2.9 3.9 85 1.0 SE 11 15 6 8 1026.5 1026.5 0.0
01/10:30pm 6.1 3.1 4.2 88 0.8 SSE 9 11 5 6 1026.5 1026.5 0.0
01/10:00pm 5.8 2.9 4.6 92 0.5 SSE 9 9 5 5 1026.6 1026.6 0.0
01/09:30pm 7.0 4.3 5.4 89 0.7 SSE 9 11 5 6 1026.3 1026.3 0.0
01/09:00pm 6.9 4.1 5.1 88 0.8 SSE 9 11 5 6 1026.1 1026.1 0.0
01/08:30pm 7.2 4.4 5.2 87 0.9 S 9 11 5 6 1025.8 1025.8 0.0
01/08:00pm 8.3 5.6 5.6 83 1.2 S 9 9 5 5 1025.5 1025.5 0.0
01/07:30pm 8.2 5.9 5.5 83 1.2 SSE 7 9 4 5 1024.9 1024.9 0.0
01/07:00pm 10.0 7.9 5.6 74 2.0 SSE 6 7 3 4 1024.4 1024.4 0.0
01/06:30pm 11.1 8.5 5.9 70 2.4 SSE 9 13 5 7 1024.1 1024.1 0.0
01/06:00pm 12.3 8.0 5.1 61 3.3 S 17 22 9 12 1024.0 1024.0 0.0
01/05:30pm 13.4 8.8 3.6 51 4.4 SSW 17 24 9 13 1023.6 1023.6 0.0
01/05:00pm 13.9 9.1 2.8 47 4.9 SSW 17 24 9 13 1023.6 1023.6 0.0
01/04:30pm 13.8 9.2 3.6 50 4.6 S 17 24 9 13 1023.6 1023.6 0.0
01/04:00pm 14.8 10.2 3.6 47 5.1 SSW 17 28 9 15 1023.4 1023.4 0.0
01/03:30pm 14.1 8.9 2.5 45 5.1 SSW 19 28 10 15 1023.5 1023.5 0.0
01/03:00pm 14.9 10.1 2.8 44 5.4 SSW 17 24 9 13 1023.4 1023.4 0.0
01/02:30pm 14.5 9.4 2.8 45 5.2 SSW 19 32 10 17 1023.1 1023.1 0.0
01/02:00pm 14.8 8.9 2.0 42 5.6 SSW 22 35 12 19 1023.1 1023.1 0.0
01/01:30pm 14.5 7.9 1.9 42 5.5 SSW 26 35 14 19 1023.1 1023.1 0.0
01/01:00pm 14.3 8.5 2.2 44 5.3 SSW 22 32 12 17 1023.4 1023.4 0.0
01/12:30pm 13.5 6.9 2.3 46 4.9 S 26 35 14 19 1023.9 1023.9 0.0
01/12:00pm 13.6 7.1 2.7 47 4.8 SSE 26 37 14 20 1024.0 1024.0 0.0
01/11:30am 13.1 6.5 2.3 48 4.7 S 26 37 14 20 1024.1 1024.1 0.0
01/11:00am 12.8 6.4 3.3 52 4.2 SSE 26 39 14 21 1024.4 1024.4 0.0
01/10:30am 12.4 6.4 3.3 54 4.0 S 24 37 13 20 1024.5 1024.5 0.0
01/10:00am 11.9 5.5 3.2 55 3.8 SSE 26 37 14 20 1024.4 1024.4 0.0
01/09:30am 11.2 6.3 4.3 62 3.1 SSE 19 30 10 16 1024.4 1024.4 0.0
01/09:00am 10.4 6.0 4.8 68 2.5 S 17 26 9 14 1024.5 1024.5 4.8
01/08:30am 9.3 5.6 4.5 72 2.1 SSE 13 20 7 11 1024.2 1024.2 4.8
01/08:00am 8.4 5.4 4.0 74 1.9 SSE 9 15 5 8 1023.8 1023.8 4.8
01/07:30am 6.8 4.3 5.0 88 0.8 SSE 7 9 4 5 1023.3 1023.3 4.8
01/07:00am 5.4 3.0 4.2 92 0.5 SSE 6 7 3 4 1022.8 1022.8 4.8
01/06:30am 5.7 2.7 4.0 89 0.7 S 9 11 5 6 1022.4 1022.4 4.6
01/06:00am 6.2 2.8 4.1 86 0.9 SSE 11 13 6 7 1021.9 1021.9 4.6
01/05:30am 6.4 3.5 4.5 88 0.8 S 9 13 5 7 1021.8 1021.8 4.6
01/05:00am 6.9 4.0 4.6 85 1.0 SSE 9 11 5 6 1021.3 1021.3 4.6
01/04:30am 7.6 4.3 4.6 81 1.3 S 11 17 6 9 1021.3 1021.3 4.6
01/04:00am 7.5 4.8 5.5 87 0.9 S 9 11 5 6 1021.1 1021.1 4.6
01/03:30am 7.7 5.7 6.2 90 0.7 S 6 7 3 4 1020.7 1020.7 4.6
01/03:00am 7.8 5.6 6.3 90 0.7 SSW 7 11 4 6 1020.7 1020.7 4.6
01/02:30am 7.8 5.2 6.3 90 0.7 SSE 9 13 5 7 1020.5 1020.5 4.2
01/02:00am 7.9 5.0 6.4 90 0.7 S 11 17 6 9 1020.6 1020.6 4.2
01/01:30am 8.1 5.2 6.3 88 0.8 S 11 17 6 9 1020.7 1020.7 4.2
01/01:00am 8.8 5.7 7.3 90 0.7 SSE 13 19 7 10 1020.7 1020.7 4.2
01/12:30am 9.0 6.5 8.0 93 0.5 SSW 11 17 6 9 1020.5 1020.5 4.0
01/12:00am 9.0 6.8 8.0 93 0.5 S 9 11 5 6 1020.4 1020.4 3.6
 
Date/Time
WST
Temp
°C
App
Temp
°C
Dew
Point
Rel
Hum
%
Delta-T
°C
Wind Press
QNH
hPa
Press
MSL
hPa
Rain
since 9 am
mm
Dir
 
Spd
km/h
Gust
km/h
Spd
kts
Gust
kts
31/11:30pm 9.2 7.0 7.7 90 0.7 S 9 15 5 8 1020.2 1020.2 3.0
31/11:00pm 9.2 7.9 7.5 89 0.8 SSW 4 7 2 4 1020.1 1020.1 2.8
31/10:30pm 9.3 6.7 7.6 89 0.8 SSE 11 15 6 8 1020.0 1020.0 2.8
31/10:00pm 9.8 7.6 7.9 88 0.9 S 9 13 5 7 1020.0 1020.0 2.8
31/09:30pm 9.9 8.2 8.5 91 0.7 SSE 7 13 4 7 1020.1 1020.1 2.8
31/09:00pm 9.9 8.3 8.7 92 0.6 S 7 9 4 5 1019.9 1019.9 2.6
31/08:30pm 10.2 7.4 8.6 90 0.8 S 13 17 7 9 1019.7 1019.7 2.6
31/08:00pm 10.3 7.9 8.7 90 0.8 S 11 15 6 8 1019.5 1019.5 2.6
31/07:30pm 10.9 6.8 8.5 85 1.2 S 20 30 11 16 1019.3 1019.3 2.6
31/07:18pm 11.2 5.5 8.3 82 1.4 SSW 28 43 15 23 1019.1 1019.1 2.6
31/07:00pm 11.2 7.7 8.8 85 1.2 SSW 17 24 9 13 1018.8 1018.8 2.6
31/06:30pm 12.6 6.3 7.5 71 2.5 SW 30 48 16 26 1018.5 1018.5 2.2
31/06:27pm 12.9 7.0 7.3 69 2.7 SW 28 48 15 26 1018.4 1018.4 2.2
31/06:00pm 13.0 7.7 6.7 65 3.0 SW 24 39 13 21 1018.0 1018.0 2.2
31/05:42pm 13.7 7.7 6.9 63 3.3 SSW 28 46 15 25 1017.6 1017.6 2.2
31/05:30pm 14.2 8.3 6.0 58 3.9 SW 26 39 14 21 1017.4 1017.4 2.2
31/05:00pm 15.2 8.1 5.3 51 4.7 SW 32 48 17 26 1017.2 1017.2 2.2
31/04:30pm 15.3 8.6 7.2 58 4.0 SW 32 52 17 28 1016.9 1016.9 2.2
31/04:09pm 16.3 8.6 3.5 42 5.9 WSW 33 56 18 30 1016.6 1016.6 2.2
31/04:00pm 15.9 8.9 6.0 52 4.8 SW 32 44 17 24 1016.6 1016.6 2.2
31/03:30pm 16.0 8.4 9.2 64 3.5 WSW 39 65 21 35 1016.7 1016.7 2.2
31/03:20pm 16.1 10.3 8.0 58 4.1 WSW 28 56 15 30 1016.5 1016.5 2.2
31/03:00pm 14.6 10.8 11.0 79 1.9 WSW 22 33 12 18 1016.4 1016.4 2.2
31/02:35pm 15.5 9.1 9.3 66 3.2 SW 33 50 18 27 1016.6 1016.6 2.2
31/02:30pm 15.0 9.0 10.0 72 2.6 WSW 32 44 17 24 1016.5 1016.5 2.2
31/02:00pm 16.8 10.6 10.0 64 3.6 WSW 33 48 18 26 1016.5 1016.5 2.2
31/01:30pm 16.7 10.7 10.1 65 3.5 WSW 32 52 17 28 1016.5 1016.5 2.2
31/01:20pm 15.9 9.4 10.4 70 2.9 WSW 35 57 19 31 1016.6 1016.6 2.2
31/01:00pm 14.2 7.6 11.2 82 1.6 WSW 37 50 20 27 1016.6 1016.6 2.2
31/12:51pm 14.3 8.2 11.7 84 1.4 WNW 35 50 19 27 1016.7 1016.7 2.0
31/12:30pm 17.0 11.7 11.1 68 3.2 NW 30 41 16 22 1016.8 1016.8 1.0
31/12:00pm 15.6 11.7 12.1 80 1.9 WNW 24 35 13 19 1017.6 1017.6 1.0
31/11:33am 13.7 8.5 10.4 80 1.7 NW 28 39 15 21 1018.0 1018.0 1.0
31/11:30am 13.2 7.2 10.1 81 1.6 NW 32 48 17 26 1018.1 1018.1 1.0
31/11:21am 15.7 9.8 9.1 65 3.4 NW 30 48 16 26 1017.9 1017.9 0.0
31/11:00am 16.8 11.1 6.9 52 4.9 WNW 26 41 14 22 1018.2 1018.2 0.0
31/10:30am 16.0 10.7 8.3 60 3.9 W 26 32 14 17 1018.6 1018.6 0.0
31/10:02am 14.6 9.1 10.4 76 2.2 W 30 48 16 26 1018.9 1018.9 0.0
31/10:00am 14.6 8.6 10.2 75 2.3 W 32 48 17 26 1018.8 1018.8 0.0
31/09:55am 14.9 9.4 9.2 68 2.9 WNW 28 48 15 26 1018.8 1018.8 0.0
31/09:30am 15.1 12.3 8.6 65 3.3 N 13 17 7 9 1018.9 1018.9 0.0
31/09:00am 14.1 11.5 9.2 72 2.5 N 13 17 7 9 1019.1 1019.1 0.0
31/08:30am 12.7 9.7 9.1 79 1.8 NNE 15 17 8 9 1019.3 1019.3 0.0
31/08:00am 11.4 8.3 8.8 84 1.3 NNE 15 19 8 10 1019.4 1019.4 0.0
31/07:30am 10.5 7.3 8.5 87 1.0 NNE 15 19 8 10 1019.3 1019.3 0.0
31/07:00am 9.9 7.0 8.0 88 0.9 NNE 13 15 7 8 1019.1 1019.1 0.0
31/06:30am 10.3 7.9 8.5 89 0.9 NNE 11 13 6 7 1019.2 1019.2 0.0
31/06:00am 9.5 7.0 8.3 92 0.6 NNE 11 15 6 8 1019.0 1019.0 0.0
31/05:30am 9.9 8.4 8.5 91 0.7 NE 6 7 3 4 1019.2 1019.2 0.0
31/05:00am 9.9 7.5 8.5 91 0.7 NNE 11 15 6 8 1019.1 1019.1 0.0
31/04:30am 10.1 8.8 9.1 93 0.5 NNE 6 9 3 5 1019.2 1019.2 0.0
31/04:00am 10.6 8.7 9.2 91 0.7 NNE 9 13 5 7 1019.4 1019.4 0.0
31/03:30am 10.8 9.0 9.4 91 0.7 NNE 9 13 5 7 1019.6 1019.6 0.0
31/03:00am 10.5 9.7 9.7 95 0.4 S 4 7 2 4 1019.9 1019.9 0.0
31/02:30am 10.6 10.6 9.8 95 0.4 CALM 0 0 0 0 1020.1 1020.1 0.0
31/02:00am 10.8 9.6 9.6 92 0.6 ENE 6 11 3 6 1020.1 1020.1 0.0
31/01:30am 10.8 9.0 9.4 91 0.7 ENE 9 11 5 6 1020.2 1020.2 0.0
31/01:00am 10.8 9.7 9.8 93 0.5 SE 6 9 3 5 1020.5 1020.5 0.0
31/12:30am 11.2 9.9 9.8 91 0.7 SE 7 11 4 6 1020.6 1020.6 0.0
31/12:00am 11.6 9.6 10.0 90 0.8 SSE 11 15 6 8 1020.9 1020.9 0.0
 
Date/Time
WST
Temp
°C
App
Temp
°C
Dew
Point
Rel
Hum
%
Delta-T
°C
Wind Press
QNH
hPa
Press
MSL
hPa
Rain
since 9 am
mm
Dir
 
Spd
km/h
Gust
km/h
Spd
kts
Gust
kts
30/11:30pm 11.2 9.8 8.8 85 1.2 E 6 7 3 4 1021.0 1021.0 0.0
30/11:00pm 11.1 9.8 9.3 89 0.9 ESE 6 9 3 5 1021.2 1021.2 0.0
30/10:30pm 11.8 11.7 9.4 85 1.2 CALM 0 0 0 0 1021.4 1021.4 0.0
30/10:00pm 11.4 11.3 9.6 89 0.9 CALM 0 0 0 0 1021.5 1021.5 0.0
30/09:30pm 11.1 10.9 9.1 87 1.0 CALM 0 0 0 0 1021.6 1021.6 0.0
30/09:00pm 11.0 10.6 8.3 83 1.3 CALM 0 0 0 0 1021.9 1021.9 0.0
30/08:30pm 12.7 12.2 7.8 72 2.4 CALM 0 0 0 0 1021.8 1021.8 0.0
30/08:00pm 12.9 11.5 8.7 75 2.1 SSE 6 7 3 4 1021.6 1021.6 0.0
30/07:30pm 11.8 10.4 8.8 82 1.5 SSW 6 7 3 4 1021.5 1021.5 0.0
30/07:00pm 11.9 10.4 8.5 80 1.7 SW 6 6 3 3 1021.2 1021.2 0.0
30/06:30pm 13.4 11.2 6.2 61 3.4 SW 7 9 4 5 1021.0 1021.0 0.0
30/06:00pm 13.7 10.7 5.9 59 3.7 WSW 11 15 6 8 1020.8 1020.8 0.0
30/05:30pm 15.1 11.9 5.1 51 4.7 WSW 11 15 6 8 1020.5 1020.5 0.0
30/05:00pm 16.2 12.2 4.7 46 5.4 SW 15 20 8 11 1020.4 1020.4 0.0
30/04:30pm 16.4 12.0 5.0 47 5.4 WSW 17 26 9 14 1020.2 1020.2 0.0
30/04:00pm 17.2 12.9 5.1 44 5.8 WSW 17 24 9 13 1020.3 1020.3 0.0
30/03:30pm 17.2 12.4 4.8 44 5.9 WSW 19 24 10 13 1020.1 1020.1 0.0
30/03:00pm 17.4 12.5 3.9 40 6.3 W 19 24 10 13 1020.1 1020.1 0.0
30/02:30pm 17.7 13.3 4.7 42 6.2 WSW 17 26 9 14 1019.9 1019.9 0.0
30/02:00pm 17.4 13.1 5.1 44 5.9 SSW 17 28 9 15 1019.5 1019.5 0.0
30/01:30pm 17.5 13.7 5.8 46 5.7 SSW 15 24 8 13 1019.4 1019.4 0.0
30/01:00pm 17.3 13.1 5.7 46 5.6 SSW 17 24 9 13 1019.7 1019.7 0.0
30/12:30pm 17.3 12.9 6.5 49 5.3 SSW 19 28 10 15 1019.8 1019.8 0.0
30/12:00pm 17.4 12.7 5.1 44 5.9 SSW 19 32 10 17 1020.2 1020.2 0.0
30/11:30am 17.1 12.3 5.7 47 5.5 SW 20 30 11 16 1020.5 1020.5 0.0
30/11:00am 17.2 12.4 7.4 52 4.9 SW 22 32 12 17 1020.5 1020.5 0.0

Other Formats:

Comma delimited format used in spreadsheet applications
http://www.bom.gov.au/fwo/IDW60801/IDW60801.94609.axf

JavaScript Object Notation format (JSON) in row-major order
http://www.bom.gov.au/fwo/IDW60801/IDW60801.94609.json